LTFE/BJV METAR and TAF weather

Enter ICAO airport designator
Station Type Date Time Source
LTFE METAR 2019/08/19 07:50 UTC NOAA

LTFE 190750Z 02012KT 350V070 CAVOK 31/08 Q1009 NOSIG


Station Type Date Time Source
LTFE Decoded METAR 2019/08/19 07:50 UTC NOAA

Station name not available
Aug 19, 2019 - 03:50 AM EDT / 2019.08.19 0750 UTC
Wind: from the NNE (020 degrees) at 14 MPH (12 KT) (direction variable):0
Visibility: greater than 7 mile(s):0
Temperature: 87 F (31 C)
Dew Point: 46 F (8 C)
Relative Humidity: 23%
Pressure (altimeter): 29.80 in. Hg (1009 hPa)
ob: LTFE 190750Z 02012KT 350V070 CAVOK 31/08 Q1009 NOSIG
cycle: 8

Station Type Date Time Source
LTFE TAF 2019/08/19 06:03 UTC NOAA

TAF LTFE 190440Z 1906/2006 02015KT CAVOK
BECMG 1916/1920 VRB02KT

Example: see airport list